createdAt,value
2018-11-20T00:24:56.239Z,22.5
2018-11-20T00:25:46.107Z,22.5
2018-11-20T00:26:36.059Z,22.5
2018-11-20T00:27:26.115Z,22.5
2018-11-20T00:28:16.483Z,22.5
2018-11-20T00:29:05.941Z,22.5
2018-11-20T00:29:56.296Z,22.5
2018-11-20T00:30:46.429Z,22.5
2018-11-20T00:31:36.696Z,22.5
2018-11-20T00:32:26.467Z,22.5
2018-11-20T00:33:16.513Z,22.5
2018-11-20T00:34:06.575Z,22.6
2018-11-20T00:34:56.348Z,22.5
2018-11-20T00:35:47.006Z,22.5
2018-11-20T00:36:37.021Z,22.6
2018-11-20T00:37:26.804Z,22.6
2018-11-20T00:38:16.871Z,22.6
2018-11-20T00:39:06.917Z,22.6
2018-11-20T00:39:57.273Z,22.5
2018-11-20T00:40:47.333Z,22.6
2018-11-20T00:41:37.385Z,22.6
2018-11-20T00:42:27.654Z,22.6
2018-11-20T00:43:17.225Z,22.6
2018-11-20T00:44:07.549Z,22.6
2018-11-20T00:44:57.605Z,22.6
2018-11-20T00:45:47.677Z,22.6
2018-11-20T00:46:37.727Z,22.6
2018-11-20T00:47:27.500Z,22.6
2018-11-20T00:48:17.836Z,22.6
2018-11-20T00:49:07.927Z,22.6
2018-11-20T00:49:57.687Z,22.6
2018-11-20T00:50:48.264Z,22.6
2018-11-20T00:51:38.088Z,22.6
2018-11-20T00:52:27.855Z,22.6
2018-11-20T00:53:17.914Z,22.6
2018-11-20T00:54:08.557Z,22.6
2018-11-20T00:54:58.336Z,22.6
2018-11-20T00:55:48.402Z,22.6
2018-11-20T00:56:38.207Z,22.6
2018-11-20T00:57:28.224Z,22.6
2018-11-20T00:58:18.276Z,22.6
2018-11-20T00:59:08.611Z,22.6
2018-11-20T00:59:58.378Z,22.6
2018-11-20T01:00:48.729Z,22.6
2018-11-20T01:01:38.746Z,22.6
2018-11-20T01:02:28.364Z,22.6
2018-11-20T01:03:18.616Z,22.6
2018-11-20T01:04:08.681Z,22.6
2018-11-20T01:04:58.723Z,22.6
2018-11-20T01:05:49.066Z,22.6
2018-11-20T01:06:39.134Z,22.6
2018-11-20T01:07:29.199Z,22.6
2018-11-20T01:08:19.279Z,22.6
2018-11-20T01:09:09.016Z,22.6
2018-11-20T01:09:59.371Z,22.6
2018-11-20T01:10:49.145Z,22.6
2018-11-20T01:11:39.499Z,22.6
2018-11-20T01:12:29.538Z,22.6
2018-11-20T01:13:19.307Z,22.6
2018-11-20T01:14:09.373Z,22.6
2018-11-20T01:14:59.423Z,22.6
2018-11-20T01:15:49.773Z,22.6
2018-11-20T01:16:39.543Z,22.6
2018-11-20T01:17:29.604Z,22.6
2018-11-20T01:18:19.974Z,22.7
2018-11-20T01:19:09.730Z,22.6
2018-11-20T01:19:59.775Z,22.6
2018-11-20T01:20:50.121Z,22.7
2018-11-20T01:21:39.887Z,22.7
2018-11-20T01:22:29.965Z,22.7
2018-11-20T01:23:20.010Z,22.6
2018-11-20T01:24:10.072Z,22.6
2018-11-20T01:25:00.437Z,22.7
2018-11-20T01:25:50.482Z,22.7
2018-11-20T01:26:40.240Z,22.7
2018-11-20T01:27:30.107Z,22.7
2018-11-20T01:28:20.359Z,22.7
2018-11-20T01:29:10.432Z,22.7
2018-11-20T01:30:00.375Z,22.7
2018-11-20T01:30:50.541Z,22.7
2018-11-20T01:31:40.894Z,22.7
2018-11-20T01:32:30.664Z,22.7
2018-11-20T01:33:20.995Z,22.7
2018-11-20T01:34:10.789Z,22.7
2018-11-20T01:35:00.544Z,22.7
2018-11-20T01:35:50.608Z,22.7
2018-11-20T01:36:40.667Z,22.7
2018-11-20T01:37:31.001Z,22.7
2018-11-20T01:38:21.364Z,22.7
2018-11-20T01:39:11.479Z,22.7
2018-11-20T01:40:01.141Z,22.7
2018-11-20T01:40:51.530Z,22.7
2018-11-20T01:41:41.582Z,22.7
2018-11-20T01:42:31.351Z,22.8
2018-11-20T01:43:21.421Z,22.7
2018-11-20T01:44:11.779Z,22.7
2018-11-20T01:45:01.530Z,22.8
2018-11-20T01:45:51.886Z,22.7
2018-11-20T01:46:41.661Z,22.8
2018-11-20T01:47:31.720Z,22.8
2018-11-20T01:48:22.041Z,22.8
2018-11-20T01:49:11.553Z,22.7
2018-11-20T01:50:01.895Z,22.8
2018-11-20T01:50:51.952Z,22.8
2018-11-20T01:51:42.306Z,22.8
2018-11-20T01:52:31.765Z,22.8
2018-11-20T01:53:22.426Z,22.8
2018-11-20T01:54:12.161Z,22.8
2018-11-20T01:55:02.528Z,22.8
2018-11-20T01:55:52.585Z,22.8
2018-11-20T01:56:42.343Z,22.8
2018-11-20T01:57:32.208Z,22.8
2018-11-20T01:58:22.758Z,22.8
2018-11-20T01:59:12.806Z,22.8
2018-11-20T02:00:02.589Z,22.8
2018-11-20T02:00:52.637Z,22.8
2018-11-20T02:01:42.977Z,22.8
2018-11-20T02:02:33.017Z,22.8
2018-11-20T02:03:22.830Z,22.8
2018-11-20T02:04:13.053Z,22.8
2018-11-20T02:05:02.647Z,22.8
2018-11-20T02:05:53.587Z,22.8
2018-11-20T02:06:43.049Z,22.8
2018-11-20T02:07:33.380Z,22.8
2018-11-20T02:08:23.476Z,22.8
2018-11-20T02:09:13.237Z,22.8
2018-11-20T02:10:03.565Z,22.8
2018-11-20T02:10:53.632Z,22.8
2018-11-20T02:11:43.397Z,22.8
2018-11-20T02:12:33.462Z,22.8
2018-11-20T02:13:23.527Z,22.8
2018-11-20T02:14:13.882Z,22.8
2018-11-20T02:15:03.904Z,22.8
2018-11-20T02:15:54.232Z,22.8
2018-11-20T02:16:43.757Z,22.8
2018-11-20T02:17:34.052Z,22.8
2018-11-20T02:18:24.151Z,22.8
2018-11-20T02:19:14.229Z,22.8
2018-11-20T02:20:03.987Z,22.8
2018-11-20T02:20:54.333Z,22.8
2018-11-20T02:21:44.396Z,22.8
2018-11-20T02:22:34.748Z,22.8
2018-11-20T02:23:24.209Z,22.8
2018-11-20T02:24:14.569Z,22.8
2018-11-20T02:25:04.329Z,22.8
2018-11-20T02:25:54.682Z,22.8
2018-11-20T02:26:44.541Z,22.8
2018-11-20T02:27:34.501Z,22.8
2018-11-20T02:28:24.873Z,22.8
2018-11-20T02:29:14.628Z,22.8
2018-11-20T02:30:04.676Z,22.8
2018-11-20T02:30:54.746Z,22.8
2018-11-20T02:31:44.991Z,22.8
2018-11-20T02:32:34.569Z,22.8
2018-11-20T02:33:25.185Z,22.8
2018-11-20T02:34:15.280Z,22.8
2018-11-20T02:35:05.024Z,22.8
2018-11-20T02:35:55.096Z,22.8
2018-11-20T02:36:45.433Z,22.8
2018-11-20T02:37:35.223Z,22.8
2018-11-20T02:38:25.543Z,22.8
2018-11-20T02:39:15.320Z,22.8
2018-11-20T02:40:05.677Z,22.8
2018-11-20T02:40:55.450Z,22.8
2018-11-20T02:41:45.787Z,22.8
2018-11-20T02:42:35.848Z,22.8
2018-11-20T02:43:25.608Z,22.8
2018-11-20T02:44:15.665Z,22.8
2018-11-20T02:45:05.747Z,22.8
2018-11-20T02:45:56.318Z,22.8
2018-11-20T02:46:45.842Z,22.8
2018-11-20T02:47:35.910Z,22.8
2018-11-20T02:48:28.752Z,22.8
2018-11-20T02:49:15.827Z,22.8
2018-11-20T02:50:06.372Z,22.8
2018-11-20T02:50:55.858Z,22.8
2018-11-20T02:51:46.488Z,22.8
2018-11-20T02:52:36.528Z,22.8
2018-11-20T02:53:26.304Z,22.8
2018-11-20T02:54:16.389Z,22.8
2018-11-20T02:55:06.750Z,22.8
2018-11-20T02:55:56.482Z,22.8
2018-11-20T02:56:46.562Z,22.8
2018-11-20T02:57:36.611Z,22.8
2018-11-20T02:58:26.377Z,22.8
2018-11-20T02:59:17.268Z,22.8
2018-11-20T03:00:06.791Z,22.8
2018-11-20T03:00:56.832Z,22.8
2018-11-20T03:01:47.171Z,22.8
2018-11-20T03:02:36.954Z,22.8
2018-11-20T03:03:27.377Z,22.8
2018-11-20T03:04:16.786Z,22.8
2018-11-20T03:05:07.129Z,22.8
2018-11-20T03:05:56.901Z,22.8
2018-11-20T03:06:47.541Z,22.8
2018-11-20T03:07:37.021Z,22.8
2018-11-20T03:08:27.638Z,22.8
2018-11-20T03:09:17.136Z,22.8
2018-11-20T03:10:07.771Z,22.8
2018-11-20T03:10:57.834Z,22.9
2018-11-20T03:11:47.612Z,22.8
2018-11-20T03:12:37.371Z,22.9
2018-11-20T03:13:27.991Z,22.8
2018-11-20T03:14:18.046Z,22.8
2018-11-20T03:15:07.828Z,22.8
2018-11-20T03:15:57.601Z,22.8
2018-11-20T03:16:47.751Z,22.8
2018-11-20T03:17:38.281Z,22.8
2018-11-20T03:18:28.358Z,22.8
2018-11-20T03:19:17.830Z,22.8
2018-11-20T03:20:08.485Z,22.8
2018-11-20T03:20:58.540Z,22.9
2018-11-20T03:21:48.291Z,22.8
2018-11-20T03:22:38.373Z,22.9
2018-11-20T03:23:28.410Z,22.8
2018-11-20T03:24:18.462Z,22.8
2018-11-20T03:25:08.833Z,22.9
2018-11-20T03:25:58.865Z,22.9
2018-11-20T03:26:49.116Z,22.9
2018-11-20T03:27:38.978Z,22.9
2018-11-20T03:28:28.848Z,22.9
2018-11-20T03:29:18.825Z,22.9
2018-11-20T03:30:09.192Z,22.9
2018-11-20T03:30:59.212Z,22.9
2018-11-20T03:31:48.701Z,22.9
2018-11-20T03:32:39.603Z,22.9
2018-11-20T03:33:29.122Z,22.9
2018-11-20T03:34:19.445Z,22.9
2018-11-20T03:35:09.520Z,22.9
2018-11-20T03:35:59.639Z,22.9
2018-11-20T03:36:49.336Z,22.9
2018-11-20T03:37:39.660Z,22.9
2018-11-20T03:38:29.467Z,22.9
2018-11-20T03:39:19.807Z,22.9
2018-11-20T03:40:09.850Z,22.9
2018-11-20T03:40:59.642Z,22.9
2018-11-20T03:41:49.988Z,22.9
2018-11-20T03:42:39.759Z,22.9
2018-11-20T03:43:29.818Z,22.9
2018-11-20T03:44:20.164Z,22.9
2018-11-20T03:45:10.219Z,22.9
2018-11-20T03:46:00.259Z,22.9
2018-11-20T03:46:50.341Z,22.9
2018-11-20T03:47:40.438Z,22.9
2018-11-20T03:48:30.166Z,22.9
2018-11-20T03:49:20.484Z,22.9
2018-11-20T03:50:10.269Z,22.9
2018-11-20T03:51:00.343Z,22.9
2018-11-20T03:51:50.683Z,22.9
2018-11-20T03:52:40.414Z,22.9
2018-11-20T03:53:30.516Z,22.9
2018-11-20T03:54:20.871Z,22.9
2018-11-20T03:55:10.863Z,22.9
2018-11-20T03:56:00.681Z,22.9
2018-11-20T03:56:50.453Z,22.9
2018-11-20T03:57:40.790Z,22.9
2018-11-20T03:58:30.866Z,22.9
2018-11-20T03:59:21.223Z,22.9
2018-11-20T04:00:10.963Z,22.9
2018-11-20T04:01:01.326Z,22.9
2018-11-20T04:01:51.397Z,22.9
2018-11-20T04:02:41.138Z,22.9
2018-11-20T04:03:31.485Z,22.9
2018-11-20T04:04:20.983Z,22.9
2018-11-20T04:05:11.333Z,22.9
2018-11-20T04:06:01.675Z,23
2018-11-20T04:06:51.461Z,23
2018-11-20T04:07:41.795Z,22.9
2018-11-20T04:08:31.863Z,22.9
2018-11-20T04:09:21.928Z,22.9
2018-11-20T04:10:11.632Z,22.9
2018-11-20T04:11:02.022Z,22.9
2018-11-20T04:11:51.797Z,22.9
2018-11-20T04:12:42.129Z,22.9
2018-11-20T04:13:31.900Z,22.9
2018-11-20T04:14:22.254Z,22.9
2018-11-20T04:15:11.735Z,22.9
2018-11-20T04:16:02.384Z,22.9
2018-11-20T04:16:52.428Z,22.9
2018-11-20T04:17:42.638Z,22.9
2018-11-20T04:18:32.255Z,22.9
2018-11-20T04:19:22.613Z,22.9
2018-11-20T04:20:12.362Z,22.9
2018-11-20T04:21:02.435Z,22.9
2018-11-20T04:21:52.497Z,22.9
2018-11-20T04:22:42.551Z,22.9
2018-11-20T04:23:32.682Z,22.9
2018-11-20T04:24:22.949Z,22.9
2018-11-20T04:25:13.877Z,22.9
2018-11-20T04:26:03.073Z,22.9
2018-11-20T04:26:53.107Z,22.9
2018-11-20T04:27:43.198Z,22.9
2018-11-20T04:28:32.945Z,22.9
2018-11-20T04:29:22.724Z,22.9
2018-11-20T04:30:13.391Z,22.8
2018-11-20T04:31:03.084Z,22.9
2018-11-20T04:31:53.489Z,22.9
2018-11-20T04:32:43.045Z,22.8
2018-11-20T04:33:33.288Z,22.9
2018-11-20T04:34:23.641Z,22.9
2018-11-20T04:35:13.697Z,22.8
2018-11-20T04:36:03.478Z,22.8
2018-11-20T04:36:54.076Z,22.8
2018-11-20T04:54:29.815Z,22.8
2018-11-20T09:08:37.162Z,21.6
2018-11-20T09:09:27.449Z,21.6
2018-11-20T09:10:17.104Z,21.6
2018-11-20T09:11:07.307Z,21.6
2018-11-20T09:11:57.664Z,21.6
2018-11-20T09:12:47.232Z,21.6
2018-11-20T09:13:37.762Z,21.6
2018-11-20T09:14:27.817Z,21.6
2018-11-20T09:15:17.652Z,21.6
2018-11-20T09:16:07.461Z,21.6
2018-11-20T09:16:57.994Z,21.6
2018-11-20T09:17:48.130Z,21.6
2018-11-20T09:18:38.109Z,21.6
2018-11-20T09:19:28.161Z,21.6
2018-11-20T09:20:18.696Z,21.6
2018-11-20T09:21:08.397Z,21.6
2018-11-20T09:21:58.334Z,21.6
2018-11-20T09:22:48.419Z,21.6
2018-11-20T09:23:38.577Z,21.6
2018-11-20T09:24:28.509Z,21.6
2018-11-20T09:25:18.273Z,21.6
2018-11-20T09:26:08.143Z,21.6
2018-11-20T09:26:58.699Z,21.6
2018-11-20T09:27:48.580Z,21.6
2018-11-20T09:28:38.796Z,21.6
2018-11-20T09:29:28.856Z,21.6
2018-11-20T09:30:18.636Z,21.6
2018-11-20T09:31:08.688Z,21.6
2018-11-20T09:31:58.461Z,21.6
2018-11-20T09:32:49.083Z,21.6
2018-11-20T09:33:38.663Z,21.6
2018-11-20T09:34:29.315Z,21.6
2018-11-20T09:35:19.822Z,21.6
2018-11-20T09:36:09.313Z,21.6
2018-11-20T09:36:59.375Z,21.6
2018-11-20T09:37:49.163Z,21.7
2018-11-20T09:38:39.217Z,21.6
2018-11-20T09:39:29.562Z,21.7
2018-11-20T09:40:19.036Z,21.7
2018-11-20T09:41:09.675Z,21.7
2018-11-20T09:41:59.435Z,21.7
2018-11-20T09:42:49.777Z,21.7
2018-11-20T09:43:39.568Z,21.7
2018-11-20T09:44:29.872Z,21.7
2018-11-20T09:45:19.667Z,21.7
2018-11-20T09:46:09.722Z,21.7
2018-11-20T09:46:59.554Z,21.7
2018-11-20T09:47:50.117Z,21.7
2018-11-20T09:48:40.010Z,21.7
2018-11-20T09:49:30.543Z,21.7
2018-11-20T09:50:20.287Z,21.7
2018-11-20T09:51:10.347Z,21.7
2018-11-20T09:52:00.129Z,21.7
2018-11-20T09:52:50.399Z,21.7
2018-11-20T09:53:40.246Z,21.7
2018-11-20T09:54:30.607Z,21.7
2018-11-20T09:55:20.627Z,21.7
2018-11-20T09:56:10.704Z,21.7
2018-11-20T09:57:00.197Z,21.7
2018-11-20T09:57:50.819Z,21.7
2018-11-20T09:58:40.892Z,21.7
2018-11-20T09:59:31.026Z,21.7
2018-11-20T10:00:21.014Z,21.7
2018-11-20T10:01:10.769Z,21.8
2018-11-20T10:02:00.831Z,21.8
2018-11-20T10:02:51.184Z,21.7
2018-11-20T10:03:40.967Z,21.8
2018-11-20T10:04:30.711Z,21.8
2018-11-20T10:05:21.339Z,21.8
2018-11-20T10:06:11.131Z,21.8
2018-11-20T10:07:01.435Z,21.8
2018-11-20T10:07:51.526Z,21.8
2018-11-20T10:08:41.723Z,21.8
2018-11-20T10:09:31.643Z,21.8
2018-11-20T10:10:21.395Z,21.8
2018-11-20T10:11:11.738Z,21.8
2018-11-20T10:12:01.814Z,21.8
2018-11-20T10:12:51.856Z,21.8
2018-11-20T10:13:41.633Z,21.8
2018-11-20T10:14:31.864Z,21.8
2018-11-20T10:15:21.763Z,21.8
2018-11-20T10:16:11.918Z,21.8
2018-11-20T10:17:01.869Z,21.8
2018-11-20T10:17:52.210Z,21.8
2018-11-20T10:18:42.010Z,21.8
2018-11-20T10:19:32.323Z,21.8
2018-11-20T10:20:22.347Z,21.8
2018-11-20T10:21:12.161Z,21.8
2018-11-20T10:22:02.421Z,21.8
2018-11-20T10:22:51.983Z,21.8
2018-11-20T10:23:42.732Z,21.8
2018-11-20T10:24:32.467Z,21.8
2018-11-20T10:25:22.965Z,21.8
2018-11-20T10:26:13.125Z,21.8
2018-11-20T10:27:02.852Z,21.8
2018-11-20T10:27:52.919Z,21.8
2018-11-20T10:28:42.975Z,21.8
2018-11-20T10:29:33.015Z,21.8
2018-11-20T10:30:23.088Z,21.8
2018-11-20T10:31:13.119Z,21.8
2018-11-20T10:32:03.202Z,21.8
2018-11-20T10:32:53.259Z,21.8
2018-11-20T10:33:43.302Z,21.8
2018-11-20T10:34:33.430Z,21.8
2018-11-20T10:35:23.238Z,21.8
2018-11-20T10:36:13.489Z,21.8
2018-11-20T10:37:02.968Z,21.8
2018-11-20T10:37:53.307Z,21.8
2018-11-20T10:38:43.364Z,21.8
2018-11-20T10:39:33.724Z,21.8
2018-11-20T10:40:23.517Z,21.8
2018-11-20T10:41:13.841Z,21.8
2018-11-20T10:42:03.317Z,21.8
2018-11-20T10:42:53.472Z,21.8
2018-11-20T10:43:44.002Z,21.8
2018-11-20T10:44:33.768Z,21.8
2018-11-20T10:45:24.280Z,21.8
2018-11-20T10:46:14.159Z,21.8
2018-11-20T10:47:03.950Z,21.8
2018-11-20T10:47:53.718Z,21.8
2018-11-20T10:48:44.073Z,21.8
2018-11-20T10:49:34.118Z,21.8
2018-11-20T10:50:24.472Z,21.8
2018-11-20T10:51:14.544Z,21.8
2018-11-20T10:52:04.306Z,21.8
2018-11-20T10:52:54.346Z,21.8
2018-11-20T10:53:44.408Z,21.8
2018-11-20T10:54:34.763Z,21.8
2018-11-20T10:55:24.533Z,21.8
2018-11-20T10:56:14.586Z,21.8
2018-11-20T10:57:04.923Z,21.8
2018-11-20T10:57:54.994Z,21.8
2018-11-20T10:58:45.033Z,21.8
2018-11-20T10:59:35.313Z,21.8
2018-11-20T11:00:25.165Z,21.8
2018-11-20T11:01:15.543Z,21.8
2018-11-20T11:02:05.269Z,21.8
2018-11-20T11:02:55.039Z,21.8
2018-11-20T11:03:44.874Z,21.8
2018-11-20T11:04:35.168Z,21.8
2018-11-20T11:05:25.218Z,21.8
2018-11-20T11:06:15.246Z,21.8
2018-11-20T11:07:06.938Z,21.8
2018-11-20T11:07:56.462Z,21.8
2018-11-20T11:08:45.744Z,21.8
2018-11-20T11:09:35.522Z,21.8
2018-11-20T11:10:25.574Z,21.8
2018-11-20T11:11:15.914Z,21.9
2018-11-20T11:12:06.499Z,21.8
2018-11-20T11:12:56.018Z,21.8
2018-11-20T11:13:46.334Z,21.8
2018-11-20T11:14:36.553Z,21.8
2018-11-20T11:15:25.905Z,21.8
2018-11-20T11:16:16.252Z,21.9
2018-11-20T11:17:06.309Z,21.8
2018-11-20T11:17:56.378Z,21.8
2018-11-20T11:18:46.456Z,21.9
2018-11-20T11:19:36.487Z,21.9
2018-11-20T11:20:26.620Z,21.9
2018-11-20T11:21:16.587Z,21.9
2018-11-20T11:22:06.679Z,21.9
2018-11-20T11:23:00.104Z,21.8
2018-11-20T11:23:46.489Z,21.9
2018-11-20T11:24:36.546Z,21.9
2018-11-20T11:25:26.916Z,21.9
2018-11-20T11:26:16.769Z,21.9
2018-11-20T11:27:06.436Z,21.9
2018-11-20T11:27:57.056Z,21.9
2018-11-20T11:28:47.153Z,21.9
2018-11-20T11:29:37.193Z,21.9
2018-11-20T11:30:26.953Z,21.9
2018-11-20T11:31:17.308Z,21.9
2018-11-20T11:32:07.083Z,21.9
2018-11-20T11:32:56.843Z,21.9
2018-11-20T11:33:47.469Z,21.9
2018-11-20T11:34:37.841Z,21.9
2018-11-20T11:35:27.313Z,21.9
2018-11-20T11:36:17.366Z,21.9
2018-11-20T11:37:07.712Z,21.9
2018-11-20T11:37:57.773Z,21.9
2018-11-20T11:38:47.828Z,21.9
2018-11-20T11:39:37.873Z,21.9
2018-11-20T11:40:27.951Z,21.9
2018-11-20T11:41:18.005Z,21.9
2018-11-20T11:42:07.773Z,21.9
2018-11-20T11:42:57.538Z,21.9
2018-11-20T11:43:47.878Z,21.9
2018-11-20T11:44:38.251Z,21.9
2018-11-20T11:45:27.996Z,21.9
2018-11-20T11:46:18.340Z,21.9
2018-11-20T11:47:08.392Z,21.9
2018-11-20T11:47:58.429Z,21.9
2018-11-20T11:48:48.227Z,21.9
2018-11-20T11:49:38.570Z,21.9
2018-11-20T11:50:28.064Z,21.9
2018-11-20T11:51:18.679Z,21.9
2018-11-20T11:52:08.744Z,21.9
2018-11-20T11:52:58.777Z,21.9
2018-11-20T11:53:48.567Z,21.9
2018-11-20T11:54:38.624Z,21.9
2018-11-20T11:55:28.682Z,21.9
2018-11-20T11:56:18.756Z,21.9
2018-11-20T11:57:09.084Z,21.9
2018-11-20T11:57:58.944Z,21.9
2018-11-20T11:58:48.934Z,21.9
2018-11-20T11:59:39.077Z,21.9
2018-11-20T12:00:29.371Z,21.9
2018-11-20T12:01:19.184Z,21.9
2018-11-20T12:03:49.592Z,21.9
2018-11-20T12:04:39.602Z,21.9
2018-11-20T12:05:29.390Z,21.9
2018-11-20T12:06:19.434Z,21.9
2018-11-20T12:07:09.801Z,21.9
2018-11-20T12:07:59.829Z,21.9
2018-11-20T12:08:49.928Z,21.9
2018-11-20T12:09:39.683Z,21.9
2018-11-20T12:10:29.625Z,21.9
2018-11-20T12:11:20.094Z,21.9
2018-11-20T12:12:09.847Z,21.9
2018-11-20T12:13:00.196Z,21.9
2018-11-20T12:13:49.761Z,21.9
2018-11-20T12:14:40.561Z,21.9
2018-11-20T12:15:30.353Z,21.9
2018-11-20T12:16:20.126Z,21.9
2018-11-20T12:17:09.901Z,21.9
2018-11-20T12:18:00.523Z,21.9
2018-11-20T12:18:50.305Z,21.9
2018-11-20T12:19:40.605Z,21.9
2018-11-20T12:20:30.428Z,21.9
2018-11-20T12:21:20.492Z,21.9
2018-11-20T12:22:10.523Z,21.9
2018-11-20T12:23:00.310Z,21.9
2018-11-20T12:23:50.938Z,21.9
2018-11-20T12:24:41.040Z,21.9
2018-11-20T12:25:30.477Z,21.9
2018-11-20T12:26:20.840Z,21.9
2018-11-20T12:27:10.887Z,21.9
2018-11-20T12:28:00.946Z,21.9
2018-11-20T12:28:57.880Z,21.9
2018-11-20T12:29:41.351Z,21.9
2018-11-20T12:30:32.578Z,21.9
2018-11-20T12:31:21.182Z,21.9
2018-11-20T12:32:11.501Z,21.9
2018-11-20T12:33:01.567Z,21.9
2018-11-20T12:33:51.337Z,21.9
2018-11-20T12:34:41.717Z,21.9
2018-11-20T12:35:38.835Z,21.9
2018-11-20T12:36:21.820Z,21.9
2018-11-20T12:37:11.859Z,21.9
2018-11-20T12:38:01.957Z,21.9
2018-11-20T12:38:51.702Z,21.9
2018-11-20T12:39:41.760Z,21.9
2018-11-20T12:40:32.821Z,21.9
2018-11-20T12:41:21.759Z,21.9
2018-11-20T12:42:12.217Z,21.9
2018-11-20T12:43:02.294Z,21.9
2018-11-20T12:43:52.047Z,21.9
2018-11-20T12:44:42.099Z,21.9
2018-11-20T12:45:34.979Z,21.9
2018-11-20T12:46:21.925Z,21.9
2018-11-20T12:47:15.048Z,21.9
2018-11-20T12:48:04.753Z,21.9
2018-11-20T12:48:52.379Z,21.9
2018-11-20T12:49:42.156Z,21.9
2018-11-20T12:50:32.504Z,21.9
2018-11-20T12:51:22.276Z,21.9
2018-11-20T12:52:12.921Z,21.9
2018-11-20T12:53:03.562Z,21.9
2018-11-20T12:53:52.744Z,21.9
2018-11-20T12:54:43.081Z,21.9
2018-11-20T12:55:36.049Z,21.9
2018-11-20T12:56:22.908Z,21.9
2018-11-20T12:57:14.587Z,21.9
2018-11-20T12:58:03.125Z,21.9
2018-11-20T12:58:54.638Z,21.9
2018-11-20T12:59:43.128Z,21.9
2018-11-20T13:00:37.215Z,21.9
2018-11-20T13:01:23.050Z,21.9
2018-11-20T13:02:14.914Z,21.9
2018-11-20T13:03:03.655Z,21.9
2018-11-20T13:03:53.415Z,21.9
2018-11-20T13:04:43.750Z,21.9
2018-11-20T13:05:34.129Z,21.9
2018-11-20T13:06:23.595Z,21.9
2018-11-20T13:07:13.943Z,21.9
2018-11-20T13:08:04.015Z,21.9
2018-11-20T13:08:53.767Z,21.9
2018-11-20T13:09:43.922Z,21.9
2018-11-20T13:10:33.882Z,21.9
2018-11-20T13:11:24.214Z,21.9
2018-11-20T13:12:13.995Z,21.9
2018-11-20T13:13:04.334Z,21.9
2018-11-20T13:13:54.384Z,21.9
2018-11-20T13:14:44.454Z,21.9
2018-11-20T13:15:34.554Z,21.9
2018-11-20T13:16:24.593Z,21.9
2018-11-20T13:17:16.547Z,21.9
2018-11-20T13:18:06.462Z,21.9
2018-11-20T13:18:55.416Z,21.9
2018-11-20T13:19:44.524Z,21.9
2018-11-20T13:20:34.871Z,21.9
2018-11-20T13:21:24.624Z,21.9
2018-11-20T13:22:14.961Z,21.9
2018-11-20T13:23:04.739Z,21.9
2018-11-20T13:23:55.093Z,21.9
2018-11-20T13:24:45.131Z,21.9
2018-11-20T13:25:34.921Z,21.9
2018-11-20T13:26:25.284Z,21.9
2018-11-20T13:27:15.326Z,21.9
2018-11-20T13:28:04.806Z,21.9
2018-11-20T13:28:55.154Z,21.9
2018-11-20T13:29:45.507Z,21.9
2018-11-20T13:30:35.574Z,21.9
2018-11-20T13:31:25.421Z,21.9
2018-11-20T13:32:15.673Z,21.9
2018-11-20T13:33:05.731Z,21.9
2018-11-20T13:33:55.586Z,21.9
2018-11-20T13:34:47.792Z,21.9
2018-11-20T13:35:35.326Z,21.9
2018-11-20T13:36:25.954Z,21.9
2018-11-20T13:37:18.170Z,21.9
2018-11-20T13:38:06.081Z,21.9
2018-11-20T13:38:56.148Z,21.9
2018-11-20T13:39:46.176Z,21.9
2018-11-20T13:40:35.960Z,21.9
2018-11-20T13:41:25.817Z,21.9
2018-11-20T13:42:16.373Z,21.9
2018-11-20T13:43:06.127Z,21.9
2018-11-20T13:43:56.467Z,21.9
2018-11-20T13:44:46.048Z,21.9
2018-11-20T13:45:36.300Z,21.9
2018-11-20T13:46:26.354Z,21.9
2018-11-20T13:47:16.415Z,21.9
2018-11-20T13:48:06.467Z,21.9
2018-11-20T13:48:56.522Z,21.9
2018-11-20T13:49:46.611Z,21.9
2018-11-20T13:50:36.935Z,21.9
2018-11-20T14:07:25.346Z,21.9
2018-11-20T14:08:15.116Z,22
2018-11-20T14:09:05.161Z,21.9
2018-11-20T14:09:55.208Z,21.9
2018-11-20T14:10:44.981Z,21.9
2018-11-20T14:12:25.095Z,22
2018-11-20T14:13:15.471Z,21.9
2018-11-20T14:14:05.513Z,22
2018-11-20T14:14:55.268Z,22
2018-11-20T14:15:45.340Z,22
2018-11-20T14:16:35.665Z,22
2018-11-20T14:17:25.155Z,22
2018-11-20T14:18:15.898Z,22
2018-11-20T14:19:20.208Z,21.9
2018-11-20T14:19:55.906Z,22
2018-11-20T14:20:45.665Z,22
2018-11-20T14:21:36.035Z,22
2018-11-20T14:22:25.800Z,22
2018-11-20T14:23:16.157Z,22
2018-11-20T14:24:05.900Z,22
2018-11-20T14:24:56.053Z,22
2018-11-20T14:25:46.295Z,22
2018-11-20T14:26:36.096Z,22
2018-11-20T14:27:25.879Z,22
2018-11-20T14:28:31.092Z,22
2018-11-20T14:29:07.035Z,22
2018-11-20T14:30:46.169Z,22
2018-11-20T14:31:36.447Z,22
2018-11-20T14:32:27.001Z,22
2018-11-20T14:33:16.532Z,22
2018-11-20T14:34:06.609Z,22
2018-11-20T14:34:56.939Z,22
2018-11-20T14:35:46.422Z,22
2018-11-20T14:36:37.060Z,22
2018-11-20T14:37:26.834Z,22
2018-11-20T14:38:16.881Z,22
2018-11-20T14:39:07.244Z,22
2018-11-20T14:39:56.712Z,22
2018-11-20T14:40:47.062Z,22
2018-11-20T14:41:36.919Z,22
2018-11-20T14:42:27.163Z,22
2018-11-20T14:43:16.941Z,22
2018-11-20T14:44:07.783Z,22
2018-11-20T14:44:57.563Z,22
2018-11-20T14:45:47.397Z,22
2018-11-20T14:46:37.969Z,22
2018-11-20T14:47:27.523Z,22
2018-11-20T14:48:17.291Z,22
2018-11-20T14:49:07.347Z,22
2018-11-20T14:49:57.991Z,22
2018-11-20T14:51:02.696Z,22
2018-11-20T14:51:37.801Z,22
2018-11-20T14:52:27.961Z,22
2018-11-20T14:53:18.214Z,22
2018-11-20T14:54:08.326Z,22
2018-11-20T14:54:58.046Z,22
2018-11-20T14:55:48.091Z,22.1
2018-11-20T14:56:38.195Z,22.1
2018-11-20T14:57:28.483Z,22.1
2018-11-20T14:58:18.549Z,22.1
2018-11-20T14:59:08.328Z,22.1
2018-11-20T14:59:58.668Z,22.1
2018-11-20T15:00:48.923Z,22.1
2018-11-20T15:01:38.508Z,22.1
2018-11-20T15:02:28.365Z,22.1
2018-11-20T15:03:18.910Z,22.1
2018-11-20T15:04:08.670Z,22.1
2018-11-20T15:04:58.966Z,22.1
2018-11-20T15:05:48.795Z,22.1
2018-11-20T15:06:39.157Z,22.1
2018-11-20T15:07:29.199Z,22.1
2018-11-20T15:08:18.972Z,22.1
2018-11-20T15:09:09.046Z,22.1
2018-11-20T15:09:58.792Z,22.1
2018-11-20T15:10:49.220Z,22.1
2018-11-20T15:11:39.488Z,22.1
2018-11-20T15:12:29.057Z,22.1
2018-11-20T15:13:19.591Z,22.1
2018-11-20T15:14:09.080Z,22.1
2018-11-20T15:14:59.955Z,22.1
2018-11-20T15:15:49.197Z,22.1
2018-11-20T15:16:39.830Z,22.1
2018-11-20T15:17:29.872Z,22.1
2018-11-20T15:18:19.709Z,22.1
2018-11-20T15:19:09.713Z,22.1
2018-11-20T15:20:00.046Z,22.1
2018-11-20T15:20:49.837Z,22.1
2018-11-20T15:21:40.199Z,22.1
2018-11-20T15:22:29.961Z,22.1
2018-11-20T15:23:20.309Z,22.1
2018-11-20T15:24:10.353Z,22.1
2018-11-20T15:25:00.661Z,22.1
2018-11-20T15:25:50.170Z,22.1
2018-11-20T15:26:40.252Z,22.1
2018-11-20T15:27:30.286Z,22.1
2018-11-20T15:28:20.599Z,22.1
2018-11-20T15:29:10.424Z,22.1
2018-11-20T15:30:00.479Z,22.1
2018-11-20T15:31:05.426Z,22.1
2018-11-20T15:31:40.789Z,22.1
2018-11-20T15:32:31.157Z,22.1
2018-11-20T15:33:20.980Z,22.1
2018-11-20T15:34:10.753Z,22.1
2018-11-20T15:35:01.121Z,22.1
2018-11-20T15:35:50.585Z,22.1
2018-11-20T15:36:40.992Z,22.1
2018-11-20T15:37:31.269Z,22.1
2018-11-20T15:38:21.048Z,22.1
2018-11-20T15:39:11.096Z,22.1
2018-11-20T15:40:01.268Z,22.1
2018-11-20T15:40:51.302Z,22.1
2018-11-20T15:41:41.570Z,22.1
2018-11-20T15:42:31.853Z,22.1
2018-11-20T15:43:21.688Z,22.1
2018-11-20T15:44:11.440Z,22.1
2018-11-20T15:45:01.970Z,22.1
2018-11-20T15:45:51.860Z,22.1
2018-11-20T15:46:41.902Z,22.1
2018-11-20T15:47:31.677Z,22.1
2018-11-20T15:48:21.650Z,22.1
2018-11-20T15:49:12.082Z,22.1
2018-11-20T15:50:02.165Z,22.1
2018-11-20T15:50:51.908Z,22.1
2018-11-20T15:51:41.983Z,22.1
2018-11-20T15:52:32.569Z,22.1
2018-11-20T15:53:22.397Z,22.1
2018-11-20T15:54:12.436Z,22.1
2018-11-20T15:55:02.495Z,22.1
2018-11-20T15:55:52.512Z,22.1
2018-11-20T15:56:42.611Z,22.1
2018-11-20T15:57:32.654Z,22.1
2018-11-20T15:58:23.125Z,22.1
2018-11-20T15:59:12.726Z,22.1
2018-11-20T16:00:03.081Z,22.1
2018-11-20T16:00:52.908Z,22.1
2018-11-20T16:01:42.677Z,22.1
2018-11-20T16:02:33.010Z,22.1
2018-11-20T16:03:24.346Z,22.1
2018-11-20T16:04:13.142Z,22.1
2018-11-20T16:05:02.911Z,22.1
2018-11-20T16:05:53.439Z,22.1
2018-11-20T16:06:43.024Z,22.1
2018-11-20T16:07:33.373Z,22.1
2018-11-20T16:08:23.158Z,22.1
2018-11-20T16:09:13.281Z,22.1
2018-11-20T16:10:03.254Z,22.1
2018-11-20T16:10:53.023Z,22.1
2018-11-20T16:11:43.363Z,22.1
2018-11-20T16:12:34.849Z,22.1
2018-11-20T16:13:23.198Z,22.1
2018-11-20T16:14:13.549Z,22.1
2018-11-20T16:15:03.401Z,22.1
2018-11-20T16:15:53.668Z,22.1
2018-11-20T16:16:44.226Z,22.1
2018-11-20T16:17:34.068Z,22.1
2018-11-20T16:18:23.633Z,22.1
2018-11-20T16:19:13.880Z,22.1
2018-11-20T16:20:54.016Z,22.1
2018-11-20T16:21:44.592Z,22.1
2018-11-20T16:22:34.125Z,22.1
2018-11-20T16:23:24.478Z,22.1